createdAt,value
2019-05-12T00:00:09.935Z,9.10
2019-05-12T00:02:39.476Z,9.10
2019-05-12T00:05:08.677Z,9.10
2019-05-12T00:07:37.915Z,8.90
2019-05-12T00:10:04.908Z,8.90
2019-05-12T00:12:32.122Z,8.90
2019-05-12T00:14:59.401Z,8.90
2019-05-12T00:17:28.417Z,8.90
2019-05-12T00:19:58.355Z,8.90
2019-05-12T00:22:28.640Z,8.80
2019-05-12T00:24:58.295Z,8.80
2019-05-12T00:27:25.315Z,8.90
2019-05-12T00:29:52.531Z,8.80
2019-05-12T00:32:19.775Z,8.90
2019-05-12T00:34:48.038Z,8.90
2019-05-12T00:37:15.495Z,8.80
2019-05-12T00:39:42.732Z,8.80
2019-05-12T00:42:09.968Z,8.80
2019-05-12T00:44:39.052Z,8.80
2019-05-12T00:47:08.190Z,8.80
2019-05-12T00:49:37.763Z,8.70
2019-05-12T00:52:04.619Z,8.70
2019-05-12T00:54:31.843Z,8.60
2019-05-12T00:56:59.111Z,8.60
2019-05-12T00:59:27.918Z,8.60
2019-05-12T01:01:55.567Z,8.60
2019-05-12T01:04:22.964Z,8.50
2019-05-12T01:06:52.044Z,8.60
2019-05-12T01:09:19.413Z,8.60
2019-05-12T01:11:48.151Z,8.50
2019-05-12T01:14:15.511Z,8.40
2019-05-12T01:16:42.751Z,8.50
2019-05-12T01:19:09.980Z,8.50
2019-05-12T01:21:37.636Z,8.40
2019-05-12T01:24:05.278Z,8.40
2019-05-12T01:26:32.610Z,8.40
2019-05-12T01:28:59.848Z,8.30
2019-05-12T01:31:30.103Z,8.20
2019-05-12T01:33:58.556Z,8.30
2019-05-12T01:36:28.480Z,8.20
2019-05-12T01:38:55.284Z,8.20
2019-05-12T01:41:22.560Z,8.10
2019-05-12T01:43:49.896Z,8.10
2019-05-12T01:46:18.124Z,8.00
2019-05-12T01:48:45.554Z,8.00
2019-05-12T01:51:12.783Z,8.10
2019-05-12T01:53:39.995Z,8.10
2019-05-12T01:56:07.850Z,8.10
2019-05-12T01:58:35.249Z,8.10
2019-05-12T02:01:03.071Z,8.00
2019-05-12T02:03:30.519Z,7.90
2019-05-12T02:05:58.871Z,7.90
2019-05-12T02:08:32.415Z,7.90
2019-05-12T02:11:18.462Z,7.90
2019-05-12T02:14:05.656Z,7.80
2019-05-12T02:16:33.435Z,8.00
2019-05-12T02:19:01.098Z,8.00
2019-05-12T02:21:28.732Z,7.90
2019-05-12T02:23:58.167Z,7.90
2019-05-12T02:26:25.836Z,8.00
2019-05-12T02:28:53.525Z,7.80
2019-05-12T02:31:21.032Z,7.80
2019-05-12T02:33:48.372Z,7.60
2019-05-12T02:36:15.710Z,7.50
2019-05-12T02:38:45.310Z,7.50
2019-05-12T02:41:15.209Z,7.30
2019-05-12T02:43:41.225Z,7.30
2019-05-12T02:46:08.438Z,7.30
2019-05-12T02:48:35.864Z,7.50
2019-05-12T02:51:05.526Z,7.30
2019-05-12T02:53:35.025Z,7.40
2019-05-12T02:56:05.012Z,7.40
2019-05-12T02:58:34.721Z,7.30
2019-05-12T03:01:05.502Z,7.30
2019-05-12T03:03:35.360Z,7.40
2019-05-12T03:06:05.386Z,7.40
2019-05-12T03:08:34.942Z,7.40
2019-05-12T03:11:05.571Z,7.30
2019-05-12T03:13:34.365Z,7.30
2019-05-12T03:16:00.207Z,7.40
2019-05-12T03:18:27.437Z,7.40
2019-05-12T03:20:54.847Z,7.40
2019-05-12T03:23:24.606Z,7.40
2019-05-12T03:25:54.435Z,7.40
2019-05-12T03:28:20.356Z,7.40
2019-05-12T03:30:49.162Z,7.30
2019-05-12T03:33:19.065Z,7.20
2019-05-12T03:35:52.297Z,7.10
2019-05-12T03:38:15.161Z,7.30
2019-05-12T03:40:45.152Z,7.20
2019-05-12T03:43:14.284Z,7.40
2019-05-12T03:45:40.824Z,7.30
2019-05-12T03:48:08.055Z,7.30
2019-05-12T03:50:36.111Z,7.30
2019-05-12T03:53:09.455Z,7.20
2019-05-12T03:55:40.247Z,7.20
2019-05-12T03:58:04.514Z,7.10
2019-05-12T04:00:35.343Z,7.20
2019-05-12T04:03:00.928Z,7.20
2019-05-12T04:05:28.140Z,7.20
2019-05-12T04:07:55.384Z,7.20
2019-05-12T04:10:24.723Z,7.10
2019-05-12T04:12:54.651Z,7.30
2019-05-12T04:15:20.892Z,7.30
2019-05-12T04:17:48.140Z,7.20
2019-05-12T04:20:15.570Z,7.30
2019-05-12T04:22:44.582Z,7.20
2019-05-12T04:25:14.538Z,7.20
2019-05-12T04:27:41.211Z,7.20
2019-05-12T04:30:08.555Z,7.30
2019-05-12T04:32:36.013Z,7.10
2019-05-12T04:35:04.896Z,7.20
2019-05-12T04:37:34.969Z,7.20
2019-05-12T04:40:01.382Z,7.20
2019-05-12T04:42:28.688Z,7.20
2019-05-12T04:44:55.944Z,7.20
2019-05-12T04:47:25.249Z,7.20
2019-05-12T04:49:54.652Z,7.30
2019-05-12T04:52:24.614Z,7.40
2019-05-12T04:54:50.725Z,7.40
2019-05-12T04:57:20.955Z,7.50
2019-05-12T04:59:47.097Z,7.40
2019-05-12T05:02:15.325Z,7.40
2019-05-12T05:04:44.094Z,7.40
2019-05-12T05:07:11.564Z,7.60
2019-05-12T05:09:38.784Z,7.50
2019-05-12T05:12:06.032Z,7.60
2019-05-12T05:14:33.996Z,7.80
2019-05-12T05:17:05.080Z,7.80
2019-05-12T05:19:30.663Z,7.80
2019-05-12T05:21:57.872Z,7.90
2019-05-12T05:24:25.107Z,7.80
2019-05-12T05:26:53.917Z,7.90
2019-05-12T05:29:21.343Z,7.90
2019-05-12T05:31:48.590Z,7.90
2019-05-12T05:34:15.816Z,7.90
2019-05-12T05:36:43.445Z,8.10
2019-05-12T05:39:10.779Z,8.10
2019-05-12T05:41:40.346Z,8.10
2019-05-12T05:44:07.144Z,8.20
2019-05-12T05:46:39.134Z,8.40
2019-05-12T05:49:04.186Z,8.40
2019-05-12T05:51:33.494Z,8.30
2019-05-12T05:54:00.864Z,8.30
2019-05-12T05:56:39.662Z,8.40
2019-05-12T05:58:57.239Z,8.40
2019-05-12T06:01:24.723Z,8.50
2019-05-12T06:03:53.240Z,8.50
2019-05-12T06:06:20.647Z,8.40
2019-05-12T06:08:57.960Z,8.60
2019-05-12T06:11:28.307Z,8.60
2019-05-12T06:13:54.792Z,8.70
2019-05-12T06:16:24.944Z,9.00
2019-05-12T06:18:51.256Z,9.00
2019-05-12T06:21:18.518Z,9.00
2019-05-12T06:23:45.739Z,8.90
2019-05-12T06:26:14.028Z,9.00
2019-05-12T06:28:43.787Z,9.00
2019-05-12T06:31:13.768Z,9.00
2019-05-12T06:33:44.532Z,9.20
2019-05-12T06:36:13.743Z,9.20
2019-05-12T06:38:43.443Z,9.30
2019-05-12T06:41:12.698Z,9.30
2019-05-12T06:43:44.741Z,9.30
2019-05-12T06:46:11.831Z,9.10
2019-05-12T06:48:42.288Z,9.20
2019-05-12T06:51:09.213Z,9.20
2019-05-12T06:53:37.711Z,9.30
2019-05-12T06:56:09.373Z,9.20
2019-05-12T06:58:34.539Z,9.20
2019-05-12T07:01:10.187Z,9.20
2019-05-12T07:03:34.934Z,9.20
2019-05-12T07:06:00.423Z,9.20
2019-05-12T07:08:32.896Z,9.20
2019-05-12T07:11:01.716Z,9.60
2019-05-12T07:13:29.409Z,9.70
2019-05-12T07:15:57.390Z,9.80
2019-05-12T07:18:32.258Z,9.60
2019-05-12T07:20:54.602Z,9.60
2019-05-12T07:23:25.976Z,9.50
2019-05-12T07:25:51.478Z,9.40
2019-05-12T07:28:18.893Z,9.40
2019-05-12T07:30:46.159Z,9.40
2019-05-12T07:33:14.502Z,9.40
2019-05-12T07:35:44.434Z,9.40
2019-05-12T07:41:14.257Z,9.40
2019-05-12T07:43:44.447Z,9.60
2019-05-12T07:46:13.401Z,9.80
2019-05-12T07:48:46.562Z,9.60
2019-05-12T07:51:10.139Z,9.70
2019-05-12T07:53:37.375Z,9.80
2019-05-12T07:56:04.772Z,10.00
2019-05-12T07:58:33.325Z,9.60
2019-05-12T08:01:04.205Z,9.90
2019-05-12T08:03:30.243Z,10.00
2019-05-12T08:06:01.810Z,10.00
2019-05-12T08:08:27.057Z,10.00
2019-05-12T08:10:56.031Z,10.10
2019-05-12T08:13:23.863Z,9.90
2019-05-12T08:15:53.999Z,9.90
2019-05-12T08:18:20.626Z,10.00
2019-05-12T08:20:47.973Z,10.00
2019-05-12T08:23:15.258Z,10.00
2019-05-12T08:25:43.656Z,10.30
2019-05-12T08:28:18.063Z,10.30
2019-05-12T08:30:47.318Z,10.40
2019-05-12T08:33:10.395Z,10.40
2019-05-12T08:35:38.648Z,10.50
2019-05-12T08:38:06.220Z,10.60
2019-05-12T08:40:34.152Z,10.80
2019-05-12T08:43:23.859Z,11.10
2019-05-12T08:45:50.359Z,11.10
2019-05-12T08:48:21.814Z,11.10
2019-05-12T08:50:46.907Z,11.20
2019-05-12T08:53:21.045Z,11.10
2019-05-12T08:55:43.833Z,11.30
2019-05-12T08:58:26.523Z,11.40
2019-05-12T09:00:46.636Z,11.40
2019-05-12T09:03:09.802Z,11.60
2019-05-12T09:05:38.454Z,11.50
2019-05-12T09:08:06.373Z,11.80
2019-05-12T09:10:34.326Z,11.70
2019-05-12T09:13:03.984Z,11.70
2019-05-12T09:15:31.119Z,11.40
2019-05-12T09:17:58.492Z,11.50
2019-05-12T09:20:25.759Z,11.60
2019-05-12T09:23:00.657Z,11.60
2019-05-12T09:25:23.897Z,11.60
2019-05-12T09:27:51.391Z,11.70
2019-05-12T09:30:27.137Z,11.80
2019-05-12T09:32:56.106Z,11.80
2019-05-12T09:35:23.728Z,11.90
2019-05-12T09:37:53.566Z,11.90
2019-05-12T09:40:22.818Z,12.00
2019-05-12T09:42:50.211Z,11.90
2019-05-12T09:45:17.581Z,11.90
2019-05-12T09:47:44.960Z,11.80
2019-05-12T09:50:16.089Z,11.80
2019-05-12T09:52:44.227Z,11.70
2019-05-12T09:55:11.695Z,11.80
2019-05-12T09:57:45.253Z,12.00
2019-05-12T10:00:13.755Z,11.90
2019-05-12T10:02:43.109Z,12.00
2019-05-12T10:05:10.630Z,12.00
2019-05-12T10:07:37.858Z,11.80
2019-05-12T10:10:05.392Z,11.80
2019-05-12T10:12:38.728Z,12.00
2019-05-12T10:15:04.097Z,12.10
2019-05-12T10:17:31.071Z,12.40
2019-05-12T10:19:58.435Z,12.40
2019-05-12T10:22:37.748Z,12.70
2019-05-12T10:25:05.751Z,13.00
2019-05-12T10:27:34.515Z,13.20
2019-05-12T10:30:05.533Z,13.50
2019-05-12T10:32:31.480Z,13.50
2019-05-12T10:34:58.826Z,13.70
2019-05-12T10:37:29.299Z,14.10
2019-05-12T10:39:55.351Z,14.10
2019-05-12T10:42:24.333Z,14.10
2019-05-12T10:44:54.403Z,14.30
2019-05-12T10:47:20.935Z,14.20
2019-05-12T10:49:48.188Z,14.30
2019-05-12T10:52:15.404Z,14.60
2019-05-12T10:54:43.475Z,15.50
2019-05-12T10:57:10.927Z,16.60
2019-05-12T10:59:38.949Z,16.30
2019-05-12T11:02:07.427Z,16.00
2019-05-12T11:04:38.945Z,16.60
2019-05-12T11:07:04.692Z,16.80
2019-05-12T11:09:34.470Z,16.80
2019-05-12T11:12:03.248Z,17.10
2019-05-12T11:14:30.848Z,16.90
2019-05-12T11:17:02.017Z,17.20
2019-05-12T11:19:29.229Z,17.20
2019-05-12T11:21:56.488Z,17.60
2019-05-12T11:24:23.799Z,17.90
2019-05-12T11:26:53.446Z,18.20
2019-05-12T11:29:20.315Z,18.20
2019-05-12T11:31:47.597Z,18.40
2019-05-12T11:34:14.872Z,18.70
2019-05-12T11:36:43.755Z,18.80
2019-05-12T11:39:11.249Z,18.60
2019-05-12T11:41:38.500Z,18.00
2019-05-12T11:44:05.732Z,17.70
2019-05-12T11:46:36.183Z,19.20
2019-05-12T11:49:04.263Z,21.20
2019-05-12T11:51:31.401Z,23.20
2019-05-12T11:54:03.605Z,22.90
2019-05-12T11:56:30.235Z,24.20
2019-05-12T11:58:57.464Z,26.20
2019-05-12T12:01:26.602Z,28.00
2019-05-12T12:03:54.673Z,28.60
2019-05-12T12:06:23.920Z,26.90
2019-05-12T12:08:53.527Z,25.30
2019-05-12T12:11:24.748Z,22.60
2019-05-12T12:13:50.781Z,21.30
2019-05-12T12:16:18.160Z,22.20
2019-05-12T12:18:49.274Z,23.20
2019-05-12T12:21:14.652Z,23.80
2019-05-12T12:23:47.279Z,22.00
2019-05-12T12:26:28.537Z,21.80
2019-05-12T12:28:51.011Z,20.90
2019-05-12T12:31:18.374Z,20.90
2019-05-12T12:33:47.172Z,20.80
2019-05-12T12:36:14.787Z,21.70
2019-05-12T12:38:43.971Z,23.30
2019-05-12T12:41:13.110Z,25.00
2019-05-12T12:43:40.427Z,25.40
2019-05-12T12:46:17.853Z,26.60
2019-05-12T12:48:43.968Z,26.60
2019-05-12T12:51:11.387Z,26.30
2019-05-12T12:53:38.639Z,25.50
2019-05-12T12:56:06.479Z,26.40
2019-05-12T12:58:36.481Z,26.60
2019-05-12T13:01:03.952Z,26.30
2019-05-12T13:03:31.291Z,25.10
2019-05-12T13:05:58.538Z,24.80
2019-05-12T13:08:25.765Z,24.50
2019-05-12T13:10:54.178Z,24.60
2019-05-12T13:13:24.074Z,24.50
2019-05-12T13:15:50.912Z,22.90
2019-05-12T13:18:25.728Z,21.90
2019-05-12T13:20:47.285Z,21.30
2019-05-12T13:23:14.540Z,21.40
2019-05-12T13:25:48.500Z,22.40
2019-05-12T13:28:18.389Z,23.10
2019-05-12T13:30:46.383Z,23.90
2019-05-12T13:33:15.046Z,24.00
2019-05-12T13:35:38.479Z,24.50
2019-05-12T13:38:05.732Z,25.00
2019-05-12T13:40:37.626Z,24.40
2019-05-12T13:43:03.919Z,22.90
2019-05-12T13:45:33.471Z,23.30
2019-05-12T13:48:00.391Z,24.40
2019-05-12T13:50:27.629Z,25.80
2019-05-12T13:52:54.878Z,25.70
2019-05-12T13:55:23.971Z,23.80
2019-05-12T13:57:53.157Z,22.20
2019-05-12T14:00:20.552Z,21.40
2019-05-12T14:02:49.042Z,21.20
2019-05-12T14:05:16.567Z,20.60
2019-05-12T14:07:43.957Z,20.60
2019-05-12T14:10:13.741Z,21.80
2019-05-12T14:12:43.701Z,21.80
2019-05-12T14:15:10.665Z,21.70
2019-05-12T14:17:40.407Z,20.60
2019-05-12T14:20:09.218Z,19.50
2019-05-12T14:22:36.771Z,18.60
2019-05-12T14:25:05.634Z,18.40
2019-05-12T14:27:33.207Z,19.90
2019-05-12T14:30:09.497Z,20.10
2019-05-12T14:32:29.750Z,19.10
2019-05-12T14:35:00.376Z,18.20
2019-05-12T14:37:26.236Z,19.10
2019-05-12T14:39:53.742Z,19.30
2019-05-12T14:42:26.103Z,19.30
2019-05-12T14:44:50.271Z,18.70
2019-05-12T14:47:19.217Z,17.80
2019-05-12T14:49:46.952Z,17.70
2019-05-12T14:52:14.202Z,17.90
2019-05-12T14:54:43.445Z,18.20
2019-05-12T14:57:10.604Z,18.30
2019-05-12T14:59:41.127Z,17.70
2019-05-12T15:02:06.989Z,17.20
2019-05-12T15:04:34.331Z,16.80
2019-05-12T15:07:08.097Z,16.60
2019-05-12T15:09:30.746Z,16.40
2019-05-12T15:11:58.051Z,16.40
2019-05-12T15:14:32.625Z,16.70
2019-05-12T15:16:54.419Z,16.70
2019-05-12T15:19:27.853Z,16.90
2019-05-12T15:21:50.878Z,16.80
2019-05-12T15:24:19.101Z,16.50
2019-05-12T15:26:50.554Z,16.40
2019-05-12T15:29:19.941Z,16.10
2019-05-12T15:31:53.130Z,15.90
2019-05-12T15:34:14.368Z,15.60
2019-05-12T15:36:44.825Z,15.30
2019-05-12T15:39:10.854Z,15.50
2019-05-12T15:41:38.112Z,15.40
2019-05-12T15:44:06.471Z,15.40
2019-05-12T15:46:41.296Z,15.60
2019-05-12T15:49:03.513Z,15.60
2019-05-12T15:51:34.904Z,15.60
2019-05-12T15:54:06.228Z,15.60
2019-05-12T15:56:29.163Z,15.60
2019-05-12T15:59:01.080Z,15.70
2019-05-12T16:01:25.549Z,15.40
2019-05-12T16:03:54.328Z,15.50
2019-05-12T16:06:21.695Z,15.20
2019-05-12T16:08:48.954Z,15.10
2019-05-12T16:11:16.207Z,14.90
2019-05-12T16:13:44.917Z,14.80
2019-05-12T16:16:14.248Z,14.70
2019-05-12T16:18:46.715Z,14.60
2019-05-12T16:21:10.880Z,14.60
2019-05-12T16:23:38.121Z,14.60
2019-05-12T16:26:08.134Z,14.50
2019-05-12T16:28:34.572Z,14.60
2019-05-12T16:31:05.014Z,14.50
2019-05-12T16:33:33.306Z,14.60
2019-05-12T16:36:06.680Z,14.60
2019-05-12T16:38:29.674Z,14.60
2019-05-12T16:40:57.409Z,14.60
2019-05-12T16:43:29.400Z,14.90
2019-05-12T16:45:54.033Z,15.00
2019-05-12T16:48:30.209Z,15.30
2019-05-12T16:50:50.511Z,15.30
2019-05-12T16:53:21.765Z,15.10
2019-05-12T16:55:49.945Z,15.10
2019-05-12T16:58:16.956Z,14.80
2019-05-12T17:00:49.189Z,14.60
2019-05-12T17:03:14.915Z,14.60
2019-05-12T17:05:43.835Z,14.40
2019-05-12T17:08:13.917Z,14.30
2019-05-12T17:10:49.716Z,14.10
2019-05-12T17:13:13.718Z,14.10
2019-05-12T17:15:39.726Z,14.20
2019-05-12T17:18:07.092Z,14.10
2019-05-12T17:20:34.427Z,14.10
2019-05-12T17:23:03.449Z,14.00
2019-05-12T17:25:31.341Z,14.00
2019-05-12T17:28:03.890Z,13.90
2019-05-12T17:30:27.751Z,13.90
2019-05-12T17:33:01.457Z,13.80
2019-05-12T17:35:26.978Z,13.80
2019-05-12T17:37:53.598Z,13.70
2019-05-12T17:40:21.007Z,13.70
2019-05-12T17:42:48.392Z,13.60
2019-05-12T17:45:20.162Z,13.50
2019-05-12T17:47:45.039Z,13.40
2019-05-12T17:50:14.283Z,13.40
2019-05-12T17:52:41.534Z,13.30
2019-05-12T17:55:10.795Z,13.30
2019-05-12T17:57:38.443Z,13.30
2019-05-12T18:00:10.463Z,13.30
2019-05-12T18:02:35.106Z,13.20
2019-05-12T18:05:10.158Z,13.30
2019-05-12T18:07:34.147Z,13.30
2019-05-12T18:10:01.214Z,13.20
2019-05-12T18:12:36.567Z,13.20
2019-05-12T18:14:57.684Z,13.30
2019-05-12T18:17:25.105Z,13.20
2019-05-12T18:19:58.939Z,13.10
2019-05-12T18:22:23.551Z,13.10
2019-05-12T18:24:54.293Z,13.10
2019-05-12T18:27:21.928Z,13.00
2019-05-12T18:29:49.206Z,13.00
2019-05-12T18:32:17.446Z,13.00
2019-05-12T18:34:46.727Z,12.90
2019-05-12T18:37:14.919Z,12.80
2019-05-12T18:39:43.706Z,13.00
2019-05-12T18:42:13.780Z,12.90
2019-05-12T18:44:40.530Z,12.80
2019-05-12T18:47:07.756Z,12.70
2019-05-12T18:49:35.142Z,12.80
2019-05-12T18:52:03.887Z,12.70
2019-05-12T18:54:35.568Z,12.70
2019-05-12T18:57:07.055Z,12.60
2019-05-12T18:59:33.987Z,12.50
2019-05-12T19:02:03.584Z,12.50
2019-05-12T19:04:34.011Z,12.40
2019-05-12T19:07:00.325Z,12.40
2019-05-12T19:09:29.331Z,12.30
2019-05-12T19:11:56.651Z,12.30
2019-05-12T19:14:29.330Z,12.20
2019-05-12T19:16:53.795Z,12.20
2019-05-12T19:19:23.573Z,12.20
2019-05-12T19:22:00.745Z,12.30
2019-05-12T19:24:20.149Z,12.00
2019-05-12T19:26:47.666Z,12.00
2019-05-12T19:29:15.017Z,12.00
2019-05-12T19:31:45.141Z,11.90
2019-05-12T19:34:20.067Z,11.90
2019-05-12T19:36:45.057Z,11.80
2019-05-12T19:39:10.375Z,11.80
2019-05-12T19:41:38.126Z,11.80
2019-05-12T19:44:05.805Z,11.70
2019-05-12T19:46:34.134Z,11.70
2019-05-12T19:49:04.325Z,11.60
2019-05-12T19:51:31.423Z,11.60
2019-05-12T19:53:59.128Z,11.60
2019-05-12T19:56:34.674Z,11.60
2019-05-12T19:58:56.245Z,11.50
2019-05-12T20:01:32.218Z,11.40
2019-05-12T20:03:55.842Z,11.30
2019-05-12T20:06:24.305Z,11.40
2019-05-12T20:08:54.109Z,11.40
2019-05-12T20:11:29.313Z,11.30
2019-05-12T20:13:53.918Z,11.30
2019-05-12T20:16:24.539Z,11.20
2019-05-12T20:18:50.447Z,11.20
2019-05-12T20:21:20.403Z,11.20
2019-05-12T20:23:46.840Z,11.10
2019-05-12T20:26:14.646Z,11.10
2019-05-12T20:28:50.098Z,11.00
2019-05-12T20:31:14.115Z,10.90
2019-05-12T20:33:43.444Z,10.90
2019-05-12T20:36:10.729Z,10.80
2019-05-12T20:38:40.544Z,10.70
2019-05-12T20:41:10.901Z,10.70
2019-05-12T20:43:41.288Z,10.80
2019-05-12T20:46:21.281Z,10.70
2019-05-12T20:48:44.469Z,10.70
2019-05-12T20:51:15.472Z,10.60
2019-05-12T20:53:43.035Z,10.70
2019-05-12T20:56:12.224Z,10.50
2019-05-12T20:58:43.577Z,10.70
2019-05-12T21:01:08.603Z,10.70
2019-05-12T21:03:39.885Z,10.60
2019-05-12T21:06:05.015Z,10.60
2019-05-12T21:08:33.859Z,10.50
2019-05-12T21:11:01.287Z,10.50
2019-05-12T21:13:31.744Z,10.50
2019-05-12T21:15:57.755Z,10.50
2019-05-12T21:18:25.000Z,10.40
2019-05-12T21:20:54.688Z,10.40
2019-05-12T21:23:21.403Z,10.30
2019-05-12T21:25:52.463Z,10.40
2019-05-12T21:28:17.832Z,10.50
2019-05-12T21:30:48.281Z,10.40
2019-05-12T21:33:14.869Z,10.30
2019-05-12T21:35:45.770Z,10.30
2019-05-12T21:38:13.434Z,10.20
2019-05-12T21:40:40.739Z,10.30
2019-05-12T21:43:08.113Z,10.20
2019-05-12T21:45:35.419Z,10.10
2019-05-12T21:48:03.698Z,10.10
2019-05-12T21:50:37.263Z,10.00
2019-05-12T21:53:00.570Z,10.00
2019-05-12T21:55:27.887Z,9.90
2019-05-12T21:57:55.273Z,10.00
2019-05-12T22:00:31.238Z,9.90
2019-05-12T22:03:02.621Z,10.00
2019-05-12T22:05:47.091Z,9.90
2019-05-12T22:07:56.930Z,9.90
2019-05-12T22:10:26.753Z,9.80
2019-05-12T22:12:53.441Z,9.90
2019-05-12T22:15:21.633Z,9.80
2019-05-12T22:18:04.189Z,9.80
2019-05-12T22:20:31.292Z,9.80
2019-05-12T22:23:05.606Z,9.70
2019-05-12T22:25:28.547Z,9.70
2019-05-12T22:27:59.275Z,9.60
2019-05-12T22:30:25.771Z,9.60
2019-05-12T22:32:54.159Z,9.60
2019-05-12T22:35:24.174Z,9.60
2019-05-12T22:37:53.410Z,9.40
2019-05-12T22:40:20.171Z,9.50
2019-05-12T22:42:50.678Z,9.40
2019-05-12T22:45:16.616Z,9.40
2019-05-12T22:47:44.047Z,9.40
2019-05-12T22:50:13.638Z,9.40
2019-05-12T22:52:45.218Z,9.40
2019-05-12T22:55:13.846Z,9.40
2019-05-12T22:57:42.967Z,9.40
2019-05-12T23:00:13.438Z,9.30
2019-05-12T23:02:40.800Z,9.40
2019-05-12T23:05:10.370Z,9.30
2019-05-12T23:07:37.583Z,9.30
2019-05-12T23:10:07.010Z,9.30
2019-05-12T23:12:34.462Z,9.30
2019-05-12T23:15:06.323Z,9.30
2019-05-12T23:17:30.819Z,9.30
2019-05-12T23:19:58.055Z,9.00
2019-05-12T23:22:29.358Z,9.20
2019-05-12T23:24:54.773Z,9.10
2019-05-12T23:27:25.203Z,9.10
2019-05-12T23:29:53.271Z,9.20
2019-05-12T23:32:20.403Z,9.10
2019-05-12T23:34:57.222Z,9.10
2019-05-12T23:37:16.803Z,9.10
2019-05-12T23:39:44.343Z,9.00
2019-05-12T23:42:13.581Z,9.00
2019-05-12T23:44:40.822Z,9.00
2019-05-12T23:47:08.063Z,9.10
2019-05-12T23:49:35.447Z,9.00
2019-05-12T23:52:03.799Z,9.00
2019-05-12T23:54:34.262Z,9.00
2019-05-12T23:57:00.699Z,8.90
2019-05-12T23:59:27.968Z,8.90
